Time;durP1;ratioP1;P1;durP2;ratioP2;P2;SDS_P1;SDS_P2;PMS_P1;PMS_P2;Temp;Humidity;BMP_temperature;BMP_pressure;BME280_temperature;BME280_humidity;BME280_pressure;Samples;Min_cycle;Max_cycle;Signal;HPM_P1;HPM_P2
2022/02/18 00:01:37;;;;;;;5.50;3.13;;;;;;;3.35;82.83;99779.78;8666208;33;20701;-77
2022/02/18 00:06:40;;;;;;;8.27;2.58;;;;;;;3.39;82.16;99768.88;8669015;33;20552;-78
2022/02/18 00:11:45;;;;;;;3.15;2.08;;;;;;;3.25;81.85;99764.41;8669118;33;20246;-77
2022/02/18 00:16:48;;;;;;;6.18;2.60;;;;;;;3.25;81.66;99782.13;8669550;33;20188;-77
2022/02/18 00:21:51;;;;;;;4.80;2.80;;;;;;;3.48;80.87;99778.06;8671640;33;20402;-77
2022/02/18 00:26:56;;;;;;;8.00;3.17;;;;;;;3.40;80.86;99788.31;8666630;33;20184;-77
2022/02/18 00:32:00;;;;;;;5.18;2.35;;;;;;;3.38;80.32;99796.38;8666989;33;20549;-78
2022/02/18 00:37:08;;;;;;;4.38;2.80;;;;;;;3.59;79.43;99799.50;8675254;33;20188;-78
2022/02/18 00:42:14;;;;;;;6.82;2.90;;;;;;;3.65;79.48;99808.94;8680807;33;20279;-77
2022/02/18 00:47:18;;;;;;;4.15;2.78;;;;;;;3.50;79.24;99814.22;8670801;33;20145;-75
2022/02/18 00:52:22;;;;;;;3.33;2.55;;;;;;;3.42;79.38;99818.28;8663504;33;20952;-76
2022/02/18 00:57:27;;;;;;;2.45;2.25;;;;;;;3.41;79.43;99819.25;8663162;33;20141;-77
2022/02/18 01:02:30;;;;;;;7.90;2.97;;;;;;;3.30;79.33;99811.06;8662053;33;20634;-77
2022/02/18 01:07:34;;;;;;;8.70;2.30;;;;;;;3.45;78.57;99820.75;8663940;33;20173;-75
2022/02/18 01:12:39;;;;;;;10.23;4.07;;;;;;;3.48;78.85;99818.78;8663005;33;21029;-76
2022/02/18 01:17:42;;;;;;;9.32;3.38;;;;;;;3.55;78.88;99821.06;8664018;33;20275;-77
2022/02/18 01:22:45;;;;;;;10.40;3.50;;;;;;;3.64;78.80;99809.88;8662669;33;20262;-77
2022/02/18 01:27:55;;;;;;;5.38;2.75;;;;;;;3.65;79.15;99828.38;8665591;33;20466;-76
2022/02/18 01:32:58;;;;;;;5.25;2.97;;;;;;;3.55;78.78;99826.38;8666507;33;20660;-77
2022/02/18 01:38:03;;;;;;;12.82;3.45;;;;;;;3.77;79.31;99821.44;8661515;33;20188;-77
2022/02/18 01:43:08;;;;;;;8.30;3.15;;;;;;;3.57;79.80;99827.13;8662688;33;20188;-77
2022/02/18 01:48:11;;;;;;;5.57;3.33;;;;;;;3.94;79.21;99815.06;8679211;33;20215;-77
2022/02/18 01:53:14;;;;;;;4.88;2.80;;;;;;;3.78;79.92;99814.31;8687859;33;20838;-77
2022/02/18 01:58:23;;;;;;;8.90;2.42;;;;;;;3.63;80.83;99803.69;8678828;33;20176;-77
2022/02/18 02:03:28;;;;;;;8.32;2.47;;;;;;;3.80;80.41;99812.44;8674469;33;20184;-77
2022/02/18 02:08:35;;;;;;;9.60;3.08;;;;;;;4.08;80.02;99814.22;8674326;33;21008;-76
2022/02/18 02:13:44;;;;;;;9.82;3.35;;;;;;;4.23;79.84;99794.66;8654281;33;20283;-77
2022/02/18 02:18:55;;;;;;;12.10;2.97;;;;;;;4.14;80.36;99798.75;8659852;33;20243;-77
2022/02/18 02:24:00;;;;;;;6.60;2.45;;;;;;;4.12;80.15;99797.97;8661415;33;20557;-77
2022/02/18 02:29:11;;;;;;;10.00;3.65;;;;;;;4.24;80.59;99776.88;8682100;33;20242;-77
2022/02/18 02:34:16;;;;;;;8.90;3.75;;;;;;;4.27;80.71;99774.03;8658643;33;20638;-76
2022/02/18 02:39:22;;;;;;;6.38;2.78;;;;;;;4.08;81.38;99767.22;8658237;33;20527;-76
2022/02/18 02:44:26;;;;;;;6.75;2.95;;;;;;;4.22;81.26;99757.50;8657944;33;20188;-76
2022/02/18 02:49:38;;;;;;;8.73;3.05;;;;;;;4.27;81.58;99758.06;8657004;33;20149;-76
2022/02/18 02:54:43;;;;;;;9.63;4.75;;;;;;;4.38;81.03;99736.94;8657827;33;20260;-77
2022/02/18 02:59:48;;;;;;;9.40;3.13;;;;;;;4.26;81.62;99753.72;8657099;33;21160;-76
2022/02/18 03:04:52;;;;;;;9.70;4.18;;;;;;;4.37;81.47;99757.38;8663534;33;20184;-77
2022/02/18 03:09:56;;;;;;;11.52;4.78;;;;;;;4.61;81.01;99754.06;8662060;33;20193;-77
2022/02/18 03:15:02;;;;;;;15.43;4.75;;;;;;;4.56;81.19;99745.53;8656817;33;20442;-76
2022/02/18 03:20:09;;;;;;;9.88;4.57;;;;;;;4.58;80.91;99746.25;8656342;33;20747;-76
2022/02/18 03:25:16;;;;;;;7.18;3.03;;;;;;;4.59;81.29;99726.72;8657021;33;20152;-76
2022/02/18 03:30:19;;;;;;;13.80;5.38;;;;;;;4.60;81.16;99742.53;8656427;33;21000;-76
2022/02/18 03:35:23;;;;;;;11.93;5.38;;;;;;;4.74;80.53;99722.16;8657734;33;20149;-77
2022/02/18 03:40:30;;;;;;;13.75;5.38;;;;;;;4.65;80.91;99723.63;8659463;33;20149;-76
2022/02/18 03:45:34;;;;;;;16.55;6.57;;;;;;;4.73;80.49;99725.78;8662803;33;20762;-77
2022/02/18 03:50:42;;;;;;;22.10;6.35;;;;;;;4.74;80.61;99727.47;8662874;33;21727;-77
2022/02/18 03:55:48;;;;;;;15.82;6.72;;;;;;;4.70;81.02;99715.34;8662741;33;20280;-77
2022/02/18 04:00:52;;;;;;;17.70;8.50;;;;;;;4.70;81.25;99718.00;8662771;33;20184;-76
2022/02/18 04:05:55;;;;;;;17.00;7.13;;;;;;;4.88;80.56;99711.41;8661850;33;20226;-77
2022/02/18 04:11:07;;;;;;;17.80;7.85;;;;;;;4.77;80.84;99709.53;8660803;33;20283;-77
2022/02/18 04:16:10;;;;;;;13.43;5.40;;;;;;;4.64;81.31;99715.78;8660677;33;20561;-76
2022/02/18 04:21:13;;;;;;;17.40;8.02;;;;;;;4.87;80.59;99688.44;8659993;33;20218;-77
2022/02/18 04:26:44;;;;;;;19.35;8.20;;;;;;;4.94;80.34;99671.09;8657636;33;20298;-76
2022/02/18 04:31:47;;;;;;;16.60;7.85;;;;;;;4.96;80.14;99671.81;8661113;33;20184;-76
2022/02/18 04:36:50;;;;;;;23.70;9.80;;;;;;;5.01;80.06;99674.22;8661778;33;20322;-77
2022/02/18 04:41:54;;;;;;;21.17;8.55;;;;;;;5.06;80.09;99667.63;8661498;33;20194;-77
2022/02/18 04:46:57;;;;;;;22.52;8.57;;;;;;;5.02;79.97;99666.13;8662405;33;21078;-77
2022/02/18 04:52:00;;;;;;;21.17;9.70;;;;;;;5.12;80.17;99658.34;8660971;33;20145;-77
2022/02/18 04:57:05;;;;;;;18.80;8.93;;;;;;;5.21;79.87;99659.50;8661426;33;20177;-76
2022/02/18 05:02:08;;;;;;;23.10;9.40;;;;;;;5.27;80.05;99646.63;8661433;33;20928;-77
2022/02/18 05:07:11;;;;;;;16.67;8.82;;;;;;;5.16;79.96;99641.22;8661920;33;21792;-77
2022/02/18 05:12:17;;;;;;;21.35;9.07;;;;;;;5.19;79.63;99637.47;8663006;33;20311;-78
2022/02/18 05:17:20;;;;;;;18.45;8.88;;;;;;;5.17;79.94;99631.41;8665589;33;21456;-76
2022/02/18 05:22:23;;;;;;;20.23;8.35;;;;;;;5.11;80.19;99629.19;8661832;33;20180;-75
2022/02/18 05:27:27;;;;;;;19.30;8.35;;;;;;;5.24;80.16;99620.22;8680147;33;20184;-75
2022/02/18 05:32:30;;;;;;;15.52;6.75;;;;;;;5.23;79.94;99596.34;8672312;33;20845;-77
2022/02/18 05:37:33;;;;;;;18.42;7.32;;;;;;;5.21;80.49;99599.13;8661091;33;20319;-77
2022/02/18 05:42:38;;;;;;;17.73;6.45;;;;;;;-149.37;100.00;59372.97;8662292;33;20148;-76
2022/02/18 05:47:41;;;;;;;10.90;5.10;;;;;;;5.25;80.46;99573.13;8662572;33;20335;-76
2022/02/18 05:52:48;;;;;;;22.08;5.22;;;;;;;5.16;80.87;99569.31;8661356;33;21512;-76
2022/02/18 05:57:53;;;;;;;17.77;5.22;;;;;;;5.20;80.44;99544.16;8660390;33;20244;-76
2022/02/18 06:02:56;;;;;;;9.45;4.57;;;;;;;5.20;80.26;99530.84;8659367;33;20222;-76
2022/02/18 06:07:59;;;;;;;17.70;6.75;;;;;;;5.29;80.05;99502.69;8660565;33;21976;-77
2022/02/18 06:13:03;;;;;;;9.85;3.92;;;;;;;5.30;79.50;99493.78;8660017;33;20181;-76
2022/02/18 06:18:06;;;;;;;13.00;5.53;;;;;;;5.28;79.39;99480.56;8659879;33;20129;-77
2022/02/18 06:23:09;;;;;;;9.68;5.20;;;;;;;5.31;79.16;99471.50;8660149;33;20202;-77
2022/02/18 06:28:14;;;;;;;18.35;5.40;;;;;;;5.37;78.41;99463.03;8660113;33;20125;-77
2022/02/18 06:33:17;;;;;;;13.90;5.28;;;;;;;5.33;77.97;99440.28;8665241;33;20192;-77
2022/02/18 06:38:20;;;;;;;10.55;4.65;;;;;;;5.43;77.62;99405.81;8661395;33;20153;-76
2022/02/18 06:43:25;;;;;;;14.93;5.38;;;;;;;5.55;77.07;99386.25;8659483;33;20176;-77
2022/02/18 06:48:28;;;;;;;13.70;6.20;;;;;;;5.54;76.94;99381.91;8657842;33;20194;-77
2022/02/18 06:53:31;;;;;;;12.27;6.22;;;;;;;5.62;76.59;99365.31;8659204;33;20342;-77
2022/02/18 06:58:35;;;;;;;22.35;6.18;;;;;;;5.71;76.36;99361.97;8658781;33;20180;-77
2022/02/18 07:03:38;;;;;;;15.00;5.97;;;;;;;5.67;75.84;99334.69;8660527;33;21865;-77
2022/02/18 07:08:41;;;;;;;19.48;5.63;;;;;;;5.69;76.21;99338.06;8670925;33;21245;-77
2022/02/18 07:13:46;;;;;;;14.02;6.22;;;;;;;5.65;75.32;99307.34;8674701;33;20268;-76
2022/02/18 07:18:49;;;;;;;18.98;6.45;;;;;;;5.69;75.13;99324.75;8660537;33;20184;-76
2022/02/18 07:23:52;;;;;;;11.30;5.90;;;;;;;5.67;75.14;99304.53;8659750;33;20768;-77
2022/02/18 07:28:57;;;;;;;14.20;4.93;;;;;;;5.69;74.75;99281.28;8658469;33;21858;-77
2022/02/18 07:34:01;;;;;;;14.88;5.85;;;;;;;5.84;74.09;99271.22;8658411;33;20257;-77
2022/02/18 07:39:04;;;;;;;12.25;5.50;;;;;;;5.87;73.75;99231.88;8658136;33;20188;-77
2022/02/18 07:44:08;;;;;;;13.40;6.43;;;;;;;5.94;73.31;99201.06;8659233;33;20223;-77
2022/02/18 07:49:12;;;;;;;18.17;5.80;;;;;;;6.09;72.90;99192.84;8658167;33;20679;-77
2022/02/18 07:54:15;;;;;;;11.73;4.35;;;;;;;6.07;72.43;99192.94;8658141;33;20234;-77
2022/02/18 07:59:21;;;;;;;13.07;5.22;;;;;;;6.22;71.85;99190.00;8656169;33;20456;-77
2022/02/18 08:04:24;;;;;;;12.18;4.10;;;;;;;6.10;71.50;99167.84;8656439;33;20161;-77
2022/02/18 08:10:11;;;;;;;11.50;4.53;;;;;;;6.20;71.94;99154.59;8657502;33;20202;-77
2022/02/18 08:15:16;;;;;;;11.00;4.68;;;;;;;5.94;73.97;99138.94;8658098;33;20878;-77
2022/02/18 08:20:20;;;;;;;8.50;3.35;;;;;;;5.79;75.03;99117.06;8657327;33;20211;-76
2022/02/18 08:25:24;;;;;;;13.55;4.45;;;;;;;5.56;76.01;99110.06;8659800;33;20525;-77
2022/02/18 08:30:28;;;;;;;7.38;3.58;;;;;;;5.49;77.26;99086.59;8663672;33;20697;-76
2022/02/18 08:35:31;;;;;;;10.25;4.88;;;;;;;5.54;78.39;99075.56;8668295;33;20145;-76
2022/02/18 08:40:36;;;;;;;14.18;4.30;;;;;;;5.43;78.66;99052.47;8661447;33;20149;-77
2022/02/18 08:45:40;;;;;;;11.73;4.15;;;;;;;5.43;78.43;99047.16;8661686;33;20180;-77
2022/02/18 08:50:43;;;;;;;12.18;4.53;;;;;;;5.63;77.91;99021.53;8661739;33;20188;-77
2022/02/18 08:55:46;;;;;;;7.60;4.10;;;;;;;5.74;77.62;99010.00;8661778;33;20426;-77
2022/02/18 09:00:50;;;;;;;12.50;4.25;;;;;;;5.76;79.61;98972.56;8662806;33;21840;-77
2022/02/18 09:05:54;;;;;;;8.98;3.75;;;;;;;5.33;81.77;98960.97;8663690;33;20304;-77
2022/02/18 09:10:57;;;;;;;9.88;3.70;;;;;;;5.59;82.22;98936.66;8660923;33;20594;-77
2022/02/18 09:16:01;;;;;;;7.15;3.60;;;;;;;5.48;83.42;98921.56;8660676;33;20442;-76
2022/02/18 09:21:17;;;;;;;7.70;3.38;;;;;;;5.40;84.63;98924.91;8660429;33;20215;-77
2022/02/18 09:26:36;;;;;;;15.45;5.57;;;;;;;5.47;85.31;98901.25;8663533;33;20184;-77
2022/02/18 09:31:47;;;;;;;11.55;4.35;;;;;;;5.22;87.40;98897.97;8663515;33;20315;-78
2022/02/18 09:36:51;;;;;;;9.95;3.20;;;;;;;5.21;87.20;98874.13;8666200;33;20226;-78
2022/02/18 09:41:55;;;;;;;12.00;3.60;;;;;;;5.19;87.44;98852.13;8674446;33;20653;-77
2022/02/18 09:47:04;;;;;;;12.63;3.80;;;;;;;5.37;87.35;98841.75;8710382;33;20156;-76
2022/02/18 09:52:09;;;;;;;8.32;3.60;;;;;;;5.40;87.19;98796.22;8708444;33;20243;-79
2022/02/18 09:57:12;;;;;;;12.95;4.25;;;;;;;5.39;87.13;98824.66;8698389;33;20243;-76
2022/02/18 10:02:17;;;;;;;12.45;3.55;;;;;;;5.64;87.06;98811.94;8674688;33;20765;-77
2022/02/18 10:07:20;;;;;;;11.55;4.28;;;;;;;5.72;87.15;98785.47;8663025;33;20271;-76
2022/02/18 10:12:36;;;;;;;14.10;4.00;;;;;;;5.76;88.87;98775.38;8663452;33;20225;-77
2022/02/18 10:17:45;;;;;;;9.80;3.17;;;;;;;5.79;89.73;98760.00;8663256;33;20144;-77
2022/02/18 10:22:57;;;;;;;12.20;3.77;;;;;;;6.07;88.35;98746.91;8661424;33;20976;-77
2022/02/18 10:28:01;;;;;;;5.28;2.55;;;;;;;5.98;89.39;98739.72;8661780;33;21705;-77
2022/02/18 10:33:16;;;;;;;9.23;3.20;;;;;;;6.14;89.27;98722.25;8662883;33;20169;-76
2022/02/18 10:38:19;;;;;;;13.18;3.97;;;;;;;6.35;89.38;98705.31;8686216;33;20179;-76
2022/02/18 10:43:25;;;;;;;7.82;2.67;;;;;;;6.11;90.62;98687.00;8652786;33;20203;-77
2022/02/18 10:48:35;;;;;;;7.28;3.53;;;;;;;6.33;90.67;98677.91;8656736;33;21364;-76
2022/02/18 10:53:43;;;;;;;8.43;3.08;;;;;;;6.53;90.92;98671.63;8654897;33;20724;-77
2022/02/18 10:58:49;;;;;;;7.55;3.20;;;;;;;6.71;91.04;98661.06;8656640;33;21033;-76
2022/02/18 11:04:00;;;;;;;5.50;2.90;;;;;;;6.59;91.98;98638.22;8656516;33;20442;-76
2022/02/18 11:09:06;;;;;;;6.40;2.75;;;;;;;6.76;91.95;98621.47;8673183;33;20561;-77
2022/02/18 11:14:14;;;;;;;4.15;2.40;;;;;;;6.88;91.83;98610.66;8697716;33;20183;-77
2022/02/18 11:19:20;;;;;;;6.90;2.35;;;;;;;7.04;91.47;98590.38;8662004;33;20702;-76
2022/02/18 11:24:46;;;;;;;4.28;2.30;;;;;;;7.17;92.01;98565.22;8668155;33;20160;-77
2022/02/18 11:29:50;;;;;;;5.90;2.90;;;;;;;7.04;92.63;98538.81;8669387;33;20386;-76
2022/02/18 11:35:22;;;;;;;4.57;2.05;;;;;;;7.33;91.95;98520.00;8667363;33;20145;-77
2022/02/18 11:40:42;;;;;;;4.97;2.33;;;;;;;7.55;91.41;98509.91;8667951;33;20580;-77
2022/02/18 11:45:45;;;;;;;5.68;2.90;;;;;;;7.74;91.05;98496.41;8664306;33;20964;-77
2022/02/18 11:50:50;;;;;;;4.38;2.25;;;;;;;7.78;91.17;98480.91;8669975;33;20942;-75
2022/02/18 11:55:55;;;;;;;3.88;2.10;;;;;;;7.69;90.38;98462.13;8657361;33;20210;-75
2022/02/18 12:00:58;;;;;;;3.28;2.10;;;;;;;7.93;89.26;98436.59;8684104;33;20326;-75
2022/02/18 12:06:12;;;;;;;2.80;1.65;;;;;;;8.01;88.90;98420.63;8666384;33;20203;-75
2022/02/18 12:11:18;;;;;;;2.88;1.50;;;;;;;8.29;86.89;98402.59;8663635;33;20211;-75
2022/02/18 12:16:22;;;;;;;4.78;1.65;;;;;;;8.06;87.01;98388.06;8665687;33;20684;-76
2022/02/18 12:21:27;;;;;;;2.75;1.40;;;;;;;8.17;87.01;98356.56;8687465;33;20729;-76
2022/02/18 12:26:34;;;;;;;4.55;1.67;;;;;;;8.54;85.93;98330.50;8664046;33;20177;-74
2022/02/18 12:31:51;;;;;;;1.30;1.20;;;;;;;8.71;85.02;98321.53;8664086;33;20188;-75
2022/02/18 12:36:57;;;;;;;3.03;1.52;;;;;;;9.03;84.45;98296.69;8664812;33;20207;-75
2022/02/18 12:42:07;;;;;;;1.75;1.20;;;;;;;9.03;83.98;98288.66;8664163;33;20408;-75
2022/02/18 12:47:10;;;;;;;1.75;1.40;;;;;;;9.50;82.83;98271.91;8665327;33;20666;-73
2022/02/18 12:52:17;;;;;;;2.65;1.30;;;;;;;9.29;82.16;98275.09;8666346;33;20838;-73
2022/02/18 12:57:22;;;;;;;2.08;1.17;;;;;;;9.42;81.65;98239.75;8664135;33;20620;-73
2022/02/18 13:02:42;;;;;;;2.72;1.10;;;;;;;9.44;81.76;98220.84;8660662;33;20685;-74
2022/02/18 13:07:48;;;;;;;1.00;0.90;;;;;;;9.56;80.72;98214.13;8662757;33;20184;-72
2022/02/18 13:12:54;;;;;;;1.98;1.00;;;;;;;9.59;79.80;98183.47;8661334;33;20187;-72
2022/02/18 13:18:01;;;;;;;2.42;1.33;;;;;;;10.04;79.67;98176.63;8661836;33;20180;-75
2022/02/18 13:23:08;;;;;;;0.73;0.68;;;;;;;9.68;79.50;98153.78;8660624;33;20454;-72
2022/02/18 13:28:16;;;;;;;0.93;0.90;;;;;;;9.56;79.31;98140.94;8660963;33;21036;-72
2022/02/18 13:33:27;;;;;;;1.52;1.17;;;;;;;9.71;78.75;98136.53;8666300;33;20609;-74
2022/02/18 13:38:35;;;;;;;1.30;1.17;;;;;;;9.84;78.84;98115.34;8675888;33;20188;-73
2022/02/18 13:43:42;;;;;;;0.77;0.77;;;;;;;9.72;78.81;98076.53;8668470;33;20188;-72
2022/02/18 13:48:47;;;;;;;1.48;1.38;;;;;;;9.73;79.50;98043.34;8662274;33;20164;-73
2022/02/18 13:53:52;;;;;;;1.02;0.90;;;;;;;10.02;78.53;98039.19;8662657;33;20185;-74
2022/02/18 13:59:20;;;;;;;1.52;1.20;;;;;;;10.09;77.98;98027.59;8661512;33;20649;-73
2022/02/18 14:04:26;;;;;;;0.60;0.60;;;;;;;9.99;78.10;98002.03;8662274;33;21214;-73
2022/02/18 14:09:49;;;;;;;2.78;1.02;;;;;;;9.93;77.95;98009.75;8663431;33;20223;-75
2022/02/18 14:15:06;;;;;;;0.90;0.90;;;;;;;10.04;78.50;97984.38;8660600;33;20191;-73
2022/02/18 14:20:14;;;;;;;1.20;1.10;;;;;;;10.22;78.07;97951.03;8658472;33;20144;-73
2022/02/18 14:25:30;;;;;;;0.93;0.90;;;;;;;10.05;78.56;97939.63;8660579;33;20234;-74
2022/02/18 14:30:41;;;;;;;1.10;1.00;;;;;;;10.22;78.46;97942.97;8683191;33;20252;-73
2022/02/18 14:35:44;;;;;;;0.88;0.88;;;;;;;10.32;78.23;97916.75;8650873;33;21685;-73
2022/02/18 14:40:55;;;;;;;1.23;1.13;;;;;;;10.21;78.89;97898.41;8660829;33;20634;-74
2022/02/18 14:46:06;;;;;;;1.20;1.20;;;;;;;10.44;78.33;97909.88;8660879;33;20640;-74
2022/02/18 14:51:09;;;;;;;0.80;0.80;;;;;;;9.87;80.13;97921.13;8659655;33;20492;-73
2022/02/18 14:56:14;;;;;;;1.00;1.00;;;;;;;9.76;82.56;97849.16;8659155;33;20564;-73
2022/02/18 15:01:17;;;;;;;1.20;1.10;;;;;;;9.61;83.66;97878.59;8657919;33;20444;-73
2022/02/18 15:06:21;;;;;;;1.10;1.00;;;;;;;9.47;85.21;97797.97;8660272;33;20180;-73
2022/02/18 15:11:25;;;;;;;1.17;0.90;;;;;;;9.26;86.75;97830.78;8664591;33;20600;-75
2022/02/18 15:16:29;;;;;;;0.90;0.90;;;;;;;9.14;87.31;97828.69;8660855;33;20180;-75
2022/02/18 15:21:33;;;;;;;4.80;1.30;;;;;;;8.90;89.08;97878.69;8659586;33;20658;-74
2022/02/18 15:26:37;;;;;;;4.68;1.00;;;;;;;8.49;93.20;97884.19;8660309;33;20168;-73
2022/02/18 15:37:04;;;;;;;2.78;1.05;;;;;;;6.68;92.45;97951.72;8662464;33;20172;-73
2022/02/18 15:42:10;;;;;;;1.15;1.10;;;;;;;5.76;91.83;97993.03;8664758;33;20597;-73
2022/02/18 15:47:15;;;;;;;3.08;1.30;;;;;;;6.01;88.35;97908.00;8662324;33;20650;-74
2022/02/18 15:52:19;;;;;;;2.05;1.40;;;;;;;6.08;83.24;97863.72;8662849;33;20771;-73
2022/02/18 15:57:23;;;;;;;2.40;0.88;;;;;;;6.75;79.93;97839.88;8663200;33;20180;-74
2022/02/18 16:02:26;;;;;;;1.23;1.13;;;;;;;7.03;74.14;97824.47;8662439;33;20192;-74
2022/02/18 16:07:29;;;;;;;2.10;0.70;;;;;;;7.32;70.57;97820.50;8661075;33;20156;-75
2022/02/18 16:12:34;;;;;;;1.10;0.93;;;;;;;7.64;67.99;97823.16;8653697;33;20216;-74
2022/02/18 16:17:42;;;;;;;2.40;0.90;;;;;;;7.85;64.34;97828.00;8661688;33;20929;-75
2022/02/18 16:22:46;;;;;;;0.90;0.90;;;;;;;7.87;62.82;97834.00;8662462;33;20587;-73
2022/02/18 16:27:50;;;;;;;1.92;1.80;;;;;;;7.71;62.20;97848.22;8662375;33;20336;-73
2022/02/18 16:32:53;;;;;;;1.90;1.20;;;;;;;7.70;61.91;97843.03;8662152;33;20451;-73
2022/02/18 16:37:56;;;;;;;2.92;1.75;;;;;;;7.83;61.35;97842.53;8668908;33;20346;-73
2022/02/18 16:43:01;;;;;;;3.40;1.45;;;;;;;7.73;60.64;97850.69;8667560;33;20238;-73
2022/02/18 16:48:05;;;;;;;2.90;1.20;;;;;;;7.77;60.27;97861.91;8657085;33;20196;-74
2022/02/18 16:53:08;;;;;;;5.07;1.65;;;;;;;7.67;57.30;97868.25;8683902;33;20192;-74
2022/02/18 16:58:12;;;;;;;2.35;1.70;;;;;;;7.79;56.28;97873.25;8660875;33;21743;-73
2022/02/18 17:03:15;;;;;;;3.90;1.30;;;;;;;8.07;56.25;97877.25;8660198;33;20883;-75
2022/02/18 17:08:18;;;;;;;3.85;1.80;;;;;;;7.93;54.64;97915.34;8660700;33;20144;-74
2022/02/18 17:13:28;;;;;;;5.30;1.60;;;;;;;7.95;54.22;97849.19;8604516;33;21502;-72
2022/02/18 17:18:35;;;;;;;6.50;2.47;;;;;;;8.09;54.10;97816.44;8603998;33;20432;-72
2022/02/18 17:23:38;;;;;;;5.20;2.38;;;;;;;8.09;54.15;97836.97;8603961;33;21044;-73
2022/02/18 17:28:45;;;;;;;5.40;1.77;;;;;;;8.23;53.20;97824.72;8603196;33;20198;-75
2022/02/18 17:33:48;;;;;;;5.57;2.55;;;;;;;8.12;53.59;97872.22;8658308;33;20247;-75
2022/02/18 17:38:51;;;;;;;4.13;1.98;;;;;;;8.09;52.90;97835.16;8658981;33;20438;-75
2022/02/18 17:43:55;;;;;;;6.80;2.35;;;;;;;7.98;54.84;97856.88;8657820;33;21918;-75
2022/02/18 17:48:59;;;;;;;7.25;2.70;;;;;;;7.78;55.16;97852.88;8656783;33;20699;-74
2022/02/18 17:54:02;;;;;;;3.53;1.77;;;;;;;7.90;56.99;97860.41;8654445;33;20836;-75
2022/02/18 17:59:07;;;;;;;4.32;2.00;;;;;;;7.52;56.19;97811.16;8653545;33;20254;-75
2022/02/18 18:04:10;;;;;;;3.15;1.85;;;;;;;7.75;54.11;97856.72;8660447;33;20242;-75
2022/02/18 18:09:13;;;;;;;9.23;2.80;;;;;;;7.68;52.78;97875.28;8660887;33;21171;-74
2022/02/18 18:14:18;;;;;;;5.80;2.25;;;;;;;8.03;53.60;97893.78;8660585;33;20579;-75
2022/02/18 18:19:21;;;;;;;8.07;3.78;;;;;;;7.96;54.60;97893.63;8659964;33;20195;-75
2022/02/18 18:24:25;;;;;;;8.27;3.08;;;;;;;7.32;59.79;97917.44;8659736;33;20438;-75
2022/02/18 18:29:29;;;;;;;11.80;2.92;;;;;;;6.16;66.03;97959.72;8659687;33;20137;-75
2022/02/18 18:34:33;;;;;;;11.88;2.80;;;;;;;6.33;60.44;98000.66;8659686;33;20542;-75
2022/02/18 18:39:36;;;;;;;6.95;2.70;;;;;;;5.47;65.22;97972.75;8541271;33;20443;-77
2022/02/18 18:47:26;;;;;;;10.02;4.40;;;;;;;6.32;56.20;98015.81;8754825;32;20775;-76
2022/02/18 18:52:35;;;;;;;4.10;3.10;;;;;;;6.15;59.73;98006.03;8685825;33;20203;-75
2022/02/18 18:57:39;;;;;;;5.75;2.30;;;;;;;5.05;65.74;98086.88;8683920;33;20142;-74
2022/02/18 19:02:44;;;;;;;12.70;2.30;;;;;;;5.09;65.25;98031.53;8683428;33;21017;-76
2022/02/18 19:07:47;;;;;;;4.55;2.95;;;;;;;4.93;66.27;98080.84;8683135;33;20637;-74
2022/02/18 19:12:50;;;;;;;7.88;2.50;;;;;;;5.13;64.36;98094.97;8684168;33;20586;-76
2022/02/18 19:17:54;;;;;;;8.55;3.60;;;;;;;3.81;78.40;98120.31;8682239;33;20194;-77
2022/02/18 19:22:57;;;;;;;8.18;3.40;;;;;;;3.36;80.35;98138.50;8680401;33;20717;-73
2022/02/18 19:28:00;;;;;;;8.55;2.65;;;;;;;3.88;75.46;98142.72;8681909;33;20187;-74
2022/02/18 19:33:05;;;;;;;5.38;2.70;;;;;;;4.54;69.41;98134.09;8681521;33;20327;-74
2022/02/18 19:38:09;;;;;;;5.15;2.83;;;;;;;4.54;69.41;98134.09;8658712;33;20176;-73
2022/02/18 19:43:12;;;;;;;5.72;1.80;;;;;;;4.64;66.37;98154.53;8523384;33;20152;-73
2022/02/18 19:48:16;;;;;;;6.60;2.00;;;;;;;3.53;77.39;98190.13;8523715;33;20727;-76
2022/02/18 19:53:19;;;;;;;5.95;2.75;;;;;;;2.93;81.85;98259.69;8515635;33;20432;-77
2022/02/18 19:58:22;;;;;;;5.07;2.53;;;;;;;3.42;77.70;98193.69;8517571;33;20505;-77
2022/02/18 20:03:27;;;;;;;5.72;2.00;;;;;;;3.72;74.87;98276.00;8505314;33;21089;-78
2022/02/18 20:08:30;;;;;;;3.40;2.00;;;;;;;4.13;73.32;98254.78;8495159;33;20711;-77
2022/02/18 20:13:33;;;;;;;4.10;2.80;;;;;;;4.22;72.79;98279.69;8491329;33;20533;-76
2022/02/18 20:18:38;;;;;;;4.82;2.60;;;;;;;4.31;71.54;98350.66;8483044;33;21193;-76
2022/02/18 20:23:41;;;;;;;6.32;2.83;;;;;;;4.13;71.44;98314.06;8485741;33;20177;-74
2022/02/18 20:28:48;;;;;;;5.72;2.50;;;;;;;3.95;71.92;98274.03;8489034;33;20585;-77
2022/02/18 20:33:53;;;;;;;6.60;4.15;;;;;;;4.33;70.48;98367.28;8492971;33;20399;-77
2022/02/18 20:38:56;;;;;;;9.88;2.45;;;;;;;4.39;67.71;98321.59;8490606;33;20516;-77
2022/02/18 20:44:00;;;;;;;4.20;1.90;;;;;;;4.23;66.62;98300.81;8493094;33;20464;-77
2022/02/18 20:49:05;;;;;;;11.45;2.67;;;;;;;4.42;62.37;98360.34;8505080;33;20156;-77
2022/02/18 20:54:08;;;;;;;3.40;2.00;;;;;;;4.76;58.76;98255.31;8504104;33;21598;-78
2022/02/18 20:59:12;;;;;;;7.30;2.20;;;;;;;4.94;56.63;98331.78;8496120;33;21133;-77
2022/02/18 21:04:18;;;;;;;7.97;1.73;;;;;;;4.96;55.11;98375.88;8503196;33;21592;-77
2022/02/18 21:09:23;;;;;;;6.18;2.50;;;;;;;5.19;54.98;98381.81;8503022;33;20475;-76
2022/02/18 21:14:27;;;;;;;3.58;2.50;;;;;;;4.87;54.82;98459.16;8446667;33;20272;-76
2022/02/18 21:19:31;;;;;;;7.25;2.85;;;;;;;5.23;55.02;98385.03;8416648;33;20462;-76
2022/02/18 21:24:34;;;;;;;14.57;5.25;;;;;;;5.10;55.37;98406.63;8450919;33;20914;-77
2022/02/18 21:29:37;;;;;;;7.03;2.60;;;;;;;5.21;55.27;98425.13;8432428;33;21141;-77
2022/02/18 21:34:42;;;;;;;6.88;2.95;;;;;;;4.91;54.16;98460.59;8453856;33;20418;-76
2022/02/18 21:39:47;;;;;;;8.93;2.97;;;;;;;4.81;52.61;98467.69;8490585;33;20417;-76
2022/02/18 21:44:51;;;;;;;6.05;2.60;;;;;;;4.96;52.23;98442.38;8504256;33;20214;-75
2022/02/18 21:49:56;;;;;;;6.28;1.83;;;;;;;4.84;51.92;98446.13;8472739;33;20164;-76
2022/02/18 21:54:59;;;;;;;9.80;2.45;;;;;;;4.87;52.35;98455.66;8415854;33;20831;-76
2022/02/18 22:00:05;;;;;;;5.78;1.60;;;;;;;4.83;52.19;98460.44;8430730;33;20929;-74
2022/02/18 22:05:23;;;;;;;4.15;2.13;;;;;;;4.79;52.18;98441.22;8414711;33;20405;-74
2022/02/18 22:10:26;;;;;;;4.68;1.90;;;;;;;4.89;53.24;98470.53;8424183;33;20302;-75
2022/02/18 22:15:29;;;;;;;4.32;1.42;;;;;;;5.06;53.71;98474.38;8425186;33;20168;-75
2022/02/18 22:20:34;;;;;;;7.55;2.80;;;;;;;5.19;54.52;98506.91;8432737;33;21102;-76
2022/02/18 22:25:37;;;;;;;6.22;2.33;;;;;;;4.87;54.48;98559.41;8428933;33;20465;-76
2022/02/18 22:30:40;;;;;;;6.97;2.60;;;;;;;4.96;54.32;98482.28;8440782;33;20971;-76
2022/02/18 22:35:45;;;;;;;5.07;2.50;;;;;;;5.02;53.07;98504.91;8429653;33;20407;-76
2022/02/18 22:40:48;;;;;;;6.93;2.70;;;;;;;4.89;52.13;98509.59;8441492;33;20450;-76
2022/02/18 22:45:51;;;;;;;9.68;2.38;;;;;;;4.97;51.70;98558.50;8418700;33;22106;-76
2022/02/18 22:50:58;;;;;;;4.97;2.47;;;;;;;4.80;50.78;98533.34;8451771;33;20458;-75
2022/02/18 22:56:01;;;;;;;7.22;2.20;;;;;;;4.82;50.81;98597.06;8470104;33;20414;-76
2022/02/18 23:01:08;;;;;;;11.90;3.03;;;;;;;4.68;50.52;98568.13;8470774;33;20551;-75
2022/02/18 23:06:17;;;;;;;7.32;2.75;;;;;;;4.62;49.86;98546.41;8486290;33;20160;-75
2022/02/18 23:11:21;;;;;;;9.00;3.13;;;;;;;4.73;49.85;98604.00;8466470;33;20128;-76
2022/02/18 23:16:24;;;;;;;3.65;2.40;;;;;;;4.66;49.68;98665.81;8467908;33;20414;-76
2022/02/18 23:21:29;;;;;;;5.78;2.63;;;;;;;4.45;50.61;98625.94;8465690;33;20410;-74
2022/02/18 23:26:32;;;;;;;6.13;2.47;;;;;;;4.47;50.42;98623.97;8466938;33;20408;-74
2022/02/18 23:31:35;;;;;;;3.95;2.50;;;;;;;4.45;50.71;98632.09;8470760;33;20904;-77
2022/02/18 23:36:39;;;;;;;10.00;2.67;;;;;;;4.22;51.06;98564.03;8471238;33;20171;-75
2022/02/18 23:41:42;;;;;;;7.50;2.63;;;;;;;4.52;51.72;98637.72;8470411;33;20414;-75
2022/02/18 23:46:45;;;;;;;10.52;3.28;;;;;;;4.42;52.19;98642.16;8470766;33;20669;-76
2022/02/18 23:51:49;;;;;;;8.18;2.33;;;;;;;4.31;52.89;98643.03;8469288;33;20464;-75
2022/02/18 23:56:52;;;;;;;14.50;3.00;;;;;;;4.38;52.13;98653.00;8470476;33;20177;-75
